»·PEaware :: N197MG KSAN-KRAL

N197MG :: KSAN-KRAL

FLIGHT INFORMATION

Flight Status: Arrived
Operator: Privately registered:
United States
More flights under this callsign
Pilot: Mike G. (11411)
Aircraft: PIPER PA-31/31P NAVAJO CHIEFTAIN
(PA31)
More flights by this aircraft type
Origin: KSAN San Diego Intl-Lindbergh
United States
Destination: KRAL Riverside Mun
United States
More flights between these airports :: More routes between these airports
Route: OCN V23 DANAH V363 POXKU V8 PDZ
File this flight plan on PilotEdge
Remarks:
Altitude:
(Current/Filed)
6,000ft
Speed:
(Current/Filed)
180kts
Departed: 09-May-18 08:58 PM
Arrived: 09-May-18 09:38 PM
Distance/Time
Traveled:
74nm/0:40
Distance/Time
To Go:
Arrived

Flight Plot

Page will automatically refresh every two minutes.


Map Options




Map Legend


Flown Route
Filed Route
Departure Airport
Arrival Airport
Navaid (VOR, NDB)
Fix

Horizontal Profiles

Position Reports

Time Latitude Longitude Heading Altitude Ground
Speed
09-May-18 20:42 32.732389 -117.176551 13 19ft 0kts
09-May-18 20:43 32.732390 -117.176551 13 19ft 0kts
09-May-18 20:44 32.732391 -117.176550 13 19ft 0kts
09-May-18 20:45 32.732392 -117.176550 13 19ft 0kts
09-May-18 20:46 32.732394 -117.176549 13 19ft 0kts
09-May-18 20:47 32.732395 -117.176549 13 19ft 0kts
09-May-18 20:48 32.732396 -117.176549 13 19ft 0kts
09-May-18 20:49 32.732398 -117.176548 13 19ft 0kts
09-May-18 20:50 32.732399 -117.176548 13 19ft 0kts
09-May-18 20:51 32.732400 -117.176548 13 19ft 0kts
09-May-18 20:52 32.732401 -117.176547 13 19ft 0kts
09-May-18 20:53 32.731605 -117.175413 142 19ft 9kts
09-May-18 20:54 32.730741 -117.175192 195 19ft 0kts
09-May-18 20:55 32.730740 -117.175192 195 19ft 0kts
09-May-18 20:56 32.730740 -117.175192 195 19ft 0kts
09-May-18 20:57 32.730321 -117.175334 202 19ft 8kts
09-May-18 20:58 32.732253 -117.184606 282 72ft 102kts
09-May-18 20:59 32.742143 -117.215761 316 1539ft 118kts
09-May-18 21:00 32.771186 -117.241806 320 2876ft 122kts
09-May-18 21:01 32.805263 -117.265078 6 3422ft 172kts
09-May-18 21:02 32.841109 -117.248516 9 5291ft 120kts
09-May-18 21:03 32.877057 -117.254345 336 6022ft 159kts
09-May-18 21:04 32.922276 -117.274273 336 5981ft 167kts
09-May-18 21:05 32.965518 -117.293687 335 5985ft 165kts
09-May-18 21:06 33.008535 -117.313035 335 5987ft 165kts
09-May-18 21:07 33.051462 -117.332360 335 5989ft 165kts
09-May-18 21:08 33.094867 -117.351922 335 5990ft 166kts
09-May-18 21:09 33.137988 -117.371376 335 5990ft 165kts
09-May-18 21:10 33.181208 -117.390896 335 5990ft 165kts
09-May-18 21:11 33.224400 -117.410438 335 5990ft 167kts
09-May-18 21:12 33.261222 -117.441604 312 5990ft 163kts
09-May-18 21:13 33.293718 -117.479585 312 5990ft 163kts
09-May-18 21:14 33.323199 -117.513940 312 5999ft 162kts
09-May-18 21:15 33.355481 -117.551642 312 5999ft 163kts
09-May-18 21:16 33.388076 -117.589720 312 6007ft 163kts
09-May-18 21:17 33.420540 -117.627676 312 6004ft 163kts
09-May-18 21:18 33.453044 -117.665724 312 6001ft 163kts
09-May-18 21:19 33.487451 -117.700596 340 5995ft 169kts
09-May-18 21:20 33.534403 -117.710485 344 5996ft 171kts
09-May-18 21:21 33.581035 -117.720891 343 5993ft 170kts
09-May-18 21:22 33.627717 -117.731391 343 5992ft 171kts
09-May-18 21:23 33.675118 -117.742070 343 5992ft 176kts
09-May-18 21:24 33.722325 -117.752685 343 5989ft 171kts
09-May-18 21:25 33.769139 -117.763255 343 5988ft 170kts
09-May-18 21:26 33.815702 -117.773774 343 5988ft 170kts
09-May-18 21:27 33.859432 -117.760597 59 5987ft 192kts
09-May-18 21:28 33.875196 -117.698452 69 5988ft 194kts
09-May-18 21:29 33.891141 -117.636478 70 5987ft 193kts
09-May-18 21:30 33.907179 -117.573649 70 5448ft 188kts
09-May-18 21:31 33.922253 -117.514545 71 4613ft 191kts
09-May-18 21:32 33.923929 -117.454204 105 3742ft 177kts
09-May-18 21:33 33.910247 -117.396940 106 2689ft 175kts
09-May-18 21:34 33.924389 -117.350669 15 2112ft 150kts
09-May-18 21:35 33.939246 -117.373163 265 2068ft 85kts
09-May-18 21:36 33.943813 -117.402308 286 1770ft 96kts
09-May-18 21:37 33.950026 -117.432051 283 846ft 89kts
09-May-18 21:38 33.951715 -117.443549 191 771ft 0kts
09-May-18 21:39 33.951714 -117.443549 191 771ft 0kts
09-May-18 21:40 33.950588 -117.443842 194 771ft 13kts
09-May-18 21:41 33.950123 -117.443986 194 771ft 0kts
09-May-18 21:42 33.950122 -117.443986 194 771ft 0kts

Navigation Log

Ident Type
1. KSAN Airport
2. OCN Navaid
3. KELPS Fix
4. DANAH Fix
5. ELB Navaid
6. JOGIT Fix
7. POXKU Fix
8. EBITE Fix
9. PDZ Navaid
10. KRAL Airport